sensor_id;sensor_type;location;lat;lon;timestamp;temperature;humidity
40085;DHT22;25786;51.504;7.344;2023-02-02T00:01:47;5.80;91.50
40085;DHT22;25786;51.504;7.344;2023-02-02T00:04:17;5.70;91.50
40085;DHT22;25786;51.504;7.344;2023-02-02T00:06:42;5.80;91.70
40085;DHT22;25786;51.504;7.344;2023-02-02T00:09:08;5.90;91.70
40085;DHT22;25786;51.504;7.344;2023-02-02T00:11:34;5.90;91.60
40085;DHT22;25786;51.504;7.344;2023-02-02T00:13:59;5.90;91.40
40085;DHT22;25786;51.504;7.344;2023-02-02T00:18:50;5.90;91.50
40085;DHT22;25786;51.504;7.344;2023-02-02T00:21:16;5.90;91.60
40085;DHT22;25786;51.504;7.344;2023-02-02T00:23:41;5.80;91.60
40085;DHT22;25786;51.504;7.344;2023-02-02T00:26:07;5.80;91.80
40085;DHT22;25786;51.504;7.344;2023-02-02T00:28:33;5.80;91.80
40085;DHT22;25786;51.504;7.344;2023-02-02T00:30:58;5.70;91.70
40085;DHT22;25786;51.504;7.344;2023-02-02T00:33:24;5.70;91.90
40085;DHT22;25786;51.504;7.344;2023-02-02T00:35:52;5.60;92.10
40085;DHT22;25786;51.504;7.344;2023-02-02T00:38:18;5.60;92.10
40085;DHT22;25786;51.504;7.344;2023-02-02T00:40:43;5.60;92.30
40085;DHT22;25786;51.504;7.344;2023-02-02T00:43:09;5.60;92.30
40085;DHT22;25786;51.504;7.344;2023-02-02T00:45:35;5.60;92.30
40085;DHT22;25786;51.504;7.344;2023-02-02T00:48:00;5.60;92.20
40085;DHT22;25786;51.504;7.344;2023-02-02T00:50:26;5.50;92.30
40085;DHT22;25786;51.504;7.344;2023-02-02T00:52:51;5.50;92.30
40085;DHT22;25786;51.504;7.344;2023-02-02T00:55:17;5.60;92.50
40085;DHT22;25786;51.504;7.344;2023-02-02T00:57:42;5.60;92.70
40085;DHT22;25786;51.504;7.344;2023-02-02T01:00:12;5.60;92.60
40085;DHT22;25786;51.504;7.344;2023-02-02T01:02:37;5.60;92.60
40085;DHT22;25786;51.504;7.344;2023-02-02T01:05:03;5.60;92.60
40085;DHT22;25786;51.504;7.344;2023-02-02T01:07:28;5.70;92.80
40085;DHT22;25786;51.504;7.344;2023-02-02T01:09:54;5.80;92.80
40085;DHT22;25786;51.504;7.344;2023-02-02T01:12:19;5.80;92.60
40085;DHT22;25786;51.504;7.344;2023-02-02T01:14:45;5.80;92.70
40085;DHT22;25786;51.504;7.344;2023-02-02T01:17:11;5.80;92.60
40085;DHT22;25786;51.504;7.344;2023-02-02T01:19:37;5.80;92.50
40085;DHT22;25786;51.504;7.344;2023-02-02T01:22:02;5.90;92.40
40085;DHT22;25786;51.504;7.344;2023-02-02T01:24:28;5.90;92.50
40085;DHT22;25786;51.504;7.344;2023-02-02T01:26:53;5.90;92.40
40085;DHT22;25786;51.504;7.344;2023-02-02T01:29:19;5.90;92.50
40085;DHT22;25786;51.504;7.344;2023-02-02T01:31:44;5.80;92.50
40085;DHT22;25786;51.504;7.344;2023-02-02T01:34:10;5.90;92.70
40085;DHT22;25786;51.504;7.344;2023-02-02T01:39:30;5.90;92.30
40085;DHT22;25786;51.504;7.344;2023-02-02T01:41:59;5.90;92.40
40085;DHT22;25786;51.504;7.344;2023-02-02T01:47:18;6.00;92.60
40085;DHT22;25786;51.504;7.344;2023-02-02T01:50:20;6.10;92.70
40085;DHT22;25786;51.504;7.344;2023-02-02T01:52:59;6.00;92.60
40085;DHT22;25786;51.504;7.344;2023-02-02T01:58:51;6.20;92.70
40085;DHT22;25786;51.504;7.344;2023-02-02T02:01:52;6.20;92.70
40085;DHT22;25786;51.504;7.344;2023-02-02T02:04:19;6.30;92.70
40085;DHT22;25786;51.504;7.344;2023-02-02T02:06:45;6.30;92.50
40085;DHT22;25786;51.504;7.344;2023-02-02T02:09:15;6.20;92.60
40085;DHT22;25786;51.504;7.344;2023-02-02T02:11:47;6.30;92.50
40085;DHT22;25786;51.504;7.344;2023-02-02T02:14:13;6.30;92.80
40085;DHT22;25786;51.504;7.344;2023-02-02T02:34:15;6.40;93.10
40085;DHT22;25786;51.504;7.344;2023-02-02T02:36:49;6.40;93.00
40085;DHT22;25786;51.504;7.344;2023-02-02T02:42:45;6.60;92.90
40085;DHT22;25786;51.504;7.344;2023-02-02T02:45:15;6.50;92.90
40085;DHT22;25786;51.504;7.344;2023-02-02T02:47:51;6.60;92.80
40085;DHT22;25786;51.504;7.344;2023-02-02T02:50:26;6.60;92.80
40085;DHT22;25786;51.504;7.344;2023-02-02T02:52:55;6.60;92.80
40085;DHT22;25786;51.504;7.344;2023-02-02T02:55:22;6.60;92.70
40085;DHT22;25786;51.504;7.344;2023-02-02T03:01:16;6.60;92.80
40085;DHT22;25786;51.504;7.344;2023-02-02T03:04:20;6.60;92.90
40085;DHT22;25786;51.504;7.344;2023-02-02T03:07:17;6.60;92.70
40085;DHT22;25786;51.504;7.344;2023-02-02T03:12:58;6.70;92.60
40085;DHT22;25786;51.504;7.344;2023-02-02T03:15:41;6.70;92.60
40085;DHT22;25786;51.504;7.344;2023-02-02T03:21:28;6.60;92.20
40085;DHT22;25786;51.504;7.344;2023-02-02T03:24:03;6.60;92.30
40085;DHT22;25786;51.504;7.344;2023-02-02T03:26:38;6.60;92.30
40085;DHT22;25786;51.504;7.344;2023-02-02T03:29:12;6.60;92.20
40085;DHT22;25786;51.504;7.344;2023-02-02T03:31:38;6.60;92.30
40085;DHT22;25786;51.504;7.344;2023-02-02T03:42:46;6.60;91.70
40085;DHT22;25786;51.504;7.344;2023-02-02T03:45:26;6.60;91.70
40085;DHT22;25786;51.504;7.344;2023-02-02T03:48:00;6.60;91.70
40085;DHT22;25786;51.504;7.344;2023-02-02T03:50:49;6.60;91.70
40085;DHT22;25786;51.504;7.344;2023-02-02T03:56:07;6.60;91.70
40085;DHT22;25786;51.504;7.344;2023-02-02T03:58:46;6.50;91.80
40085;DHT22;25786;51.504;7.344;2023-02-02T04:01:27;6.50;92.10
40085;DHT22;25786;51.504;7.344;2023-02-02T04:04:02;6.50;92.20
40085;DHT22;25786;51.504;7.344;2023-02-02T04:06:27;6.60;92.10
40085;DHT22;25786;51.504;7.344;2023-02-02T04:09:02;6.60;92.00
40085;DHT22;25786;51.504;7.344;2023-02-02T04:11:28;6.50;92.00
40085;DHT22;25786;51.504;7.344;2023-02-02T04:17:04;6.60;92.40
40085;DHT22;25786;51.504;7.344;2023-02-02T04:19:30;6.60;92.50
40085;DHT22;25786;51.504;7.344;2023-02-02T04:22:02;6.50;92.40
40085;DHT22;25786;51.504;7.344;2023-02-02T04:24:29;6.60;92.50
40085;DHT22;25786;51.504;7.344;2023-02-02T04:26:55;6.60;92.60
40085;DHT22;25786;51.504;7.344;2023-02-02T04:29:21;6.60;92.60
40085;DHT22;25786;51.504;7.344;2023-02-02T04:34:25;6.70;92.60
40085;DHT22;25786;51.504;7.344;2023-02-02T04:36:58;6.60;92.60
40085;DHT22;25786;51.504;7.344;2023-02-02T04:40:00;6.60;92.80
40085;DHT22;25786;51.504;7.344;2023-02-02T04:42:31;6.60;92.90
40085;DHT22;25786;51.504;7.344;2023-02-02T04:44:58;6.50;93.00
40085;DHT22;25786;51.504;7.344;2023-02-02T04:47:24;6.60;93.10
40085;DHT22;25786;51.504;7.344;2023-02-02T04:49:49;6.60;93.10
40085;DHT22;25786;51.504;7.344;2023-02-02T05:01:24;6.60;93.10
40085;DHT22;25786;51.504;7.344;2023-02-02T05:07:04;6.60;93.20
40085;DHT22;25786;51.504;7.344;2023-02-02T05:09:45;6.70;93.30
40085;DHT22;25786;51.504;7.344;2023-02-02T05:12:25;6.70;93.40
40085;DHT22;25786;51.504;7.344;2023-02-02T05:14:51;6.70;93.40
40085;DHT22;25786;51.504;7.344;2023-02-02T05:17:33;6.80;93.20
40085;DHT22;25786;51.504;7.344;2023-02-02T05:20:16;6.70;93.20
40085;DHT22;25786;51.504;7.344;2023-02-02T05:23:11;6.80;93.20
40085;DHT22;25786;51.504;7.344;2023-02-02T05:37:41;6.90;93.00
40085;DHT22;25786;51.504;7.344;2023-02-02T05:40:10;6.80;93.10
40085;DHT22;25786;51.504;7.344;2023-02-02T05:49:27;6.90;92.70
40085;DHT22;25786;51.504;7.344;2023-02-02T05:52:31;7.00;92.70
40085;DHT22;25786;51.504;7.344;2023-02-02T05:55:12;6.90;92.70
40085;DHT22;25786;51.504;7.344;2023-02-02T05:58:09;7.00;92.60
40085;DHT22;25786;51.504;7.344;2023-02-02T06:01:05;7.00;92.60
40085;DHT22;25786;51.504;7.344;2023-02-02T06:03:56;7.00;92.50
40085;DHT22;25786;51.504;7.344;2023-02-02T06:06:34;7.00;92.30
40085;DHT22;25786;51.504;7.344;2023-02-02T06:09:16;7.00;92.30
40085;DHT22;25786;51.504;7.344;2023-02-02T06:12:05;7.00;92.50
40085;DHT22;25786;51.504;7.344;2023-02-02T06:14:54;7.00;92.50
40085;DHT22;25786;51.504;7.344;2023-02-02T06:27:02;7.00;92.50
40085;DHT22;25786;51.504;7.344;2023-02-02T06:29:28;7.10;92.50
40085;DHT22;25786;51.504;7.344;2023-02-02T06:31:53;7.00;92.30
40085;DHT22;25786;51.504;7.344;2023-02-02T06:34:19;7.00;92.30
40085;DHT22;25786;51.504;7.344;2023-02-02T06:36:44;7.00;92.30
40085;DHT22;25786;51.504;7.344;2023-02-02T06:39:10;7.00;92.20
40085;DHT22;25786;51.504;7.344;2023-02-02T06:41:35;7.00;92.40
40085;DHT22;25786;51.504;7.344;2023-02-02T06:44:01;7.00;92.30
40085;DHT22;25786;51.504;7.344;2023-02-02T06:46:26;7.10;92.20
40085;DHT22;25786;51.504;7.344;2023-02-02T06:48:52;7.00;92.20
40085;DHT22;25786;51.504;7.344;2023-02-02T06:51:17;7.10;92.30
40085;DHT22;25786;51.504;7.344;2023-02-02T06:53:43;7.10;92.40
40085;DHT22;25786;51.504;7.344;2023-02-02T06:56:11;7.10;92.30
40085;DHT22;25786;51.504;7.344;2023-02-02T06:58:37;7.10;92.50
40085;DHT22;25786;51.504;7.344;2023-02-02T07:01:12;7.10;92.40
40085;DHT22;25786;51.504;7.344;2023-02-02T07:03:37;7.10;92.40
40085;DHT22;25786;51.504;7.344;2023-02-02T07:06:16;7.10;92.40
40085;DHT22;25786;51.504;7.344;2023-02-02T07:08:42;7.10;92.30
40085;DHT22;25786;51.504;7.344;2023-02-02T07:11:08;7.20;92.30
40085;DHT22;25786;51.504;7.344;2023-02-02T07:13:33;7.20;92.00
40085;DHT22;25786;51.504;7.344;2023-02-02T07:15:59;7.20;92.10
40085;DHT22;25786;51.504;7.344;2023-02-02T07:18:24;7.20;92.30
40085;DHT22;25786;51.504;7.344;2023-02-02T07:20:50;7.10;92.30
40085;DHT22;25786;51.504;7.344;2023-02-02T07:23:15;7.10;92.40
40085;DHT22;25786;51.504;7.344;2023-02-02T07:25:41;7.20;92.50
40085;DHT22;25786;51.504;7.344;2023-02-02T07:28:06;7.20;92.40
40085;DHT22;25786;51.504;7.344;2023-02-02T07:30:32;7.10;92.30
40085;DHT22;25786;51.504;7.344;2023-02-02T07:32:57;7.20;92.30
40085;DHT22;25786;51.504;7.344;2023-02-02T07:35:23;7.30;92.30
40085;DHT22;25786;51.504;7.344;2023-02-02T07:37:52;7.20;92.30
40085;DHT22;25786;51.504;7.344;2023-02-02T07:40:18;7.20;92.30
40085;DHT22;25786;51.504;7.344;2023-02-02T07:42:46;7.20;92.30
40085;DHT22;25786;51.504;7.344;2023-02-02T07:45:12;7.20;92.40
40085;DHT22;25786;51.504;7.344;2023-02-02T07:47:38;7.20;92.20
40085;DHT22;25786;51.504;7.344;2023-02-02T07:50:04;7.20;92.30
40085;DHT22;25786;51.504;7.344;2023-02-02T07:52:29;7.20;92.30
40085;DHT22;25786;51.504;7.344;2023-02-02T07:54:55;7.30;92.20
40085;DHT22;25786;51.504;7.344;2023-02-02T07:57:20;7.30;92.10
40085;DHT22;25786;51.504;7.344;2023-02-02T07:59:46;7.30;92.20
40085;DHT22;25786;51.504;7.344;2023-02-02T08:02:11;7.30;92.10
40085;DHT22;25786;51.504;7.344;2023-02-02T08:04:36;7.20;92.20
40085;DHT22;25786;51.504;7.344;2023-02-02T08:07:02;7.20;92.30
40085;DHT22;25786;51.504;7.344;2023-02-02T08:09:27;7.30;92.20
40085;DHT22;25786;51.504;7.344;2023-02-02T08:11:53;7.30;92.10
40085;DHT22;25786;51.504;7.344;2023-02-02T08:14:19;7.30;92.30
40085;DHT22;25786;51.504;7.344;2023-02-02T08:16:44;7.30;92.30
40085;DHT22;25786;51.504;7.344;2023-02-02T08:19:10;7.30;92.30
40085;DHT22;25786;51.504;7.344;2023-02-02T08:21:35;7.30;92.30
40085;DHT22;25786;51.504;7.344;2023-02-02T08:24:01;7.30;92.20
40085;DHT22;25786;51.504;7.344;2023-02-02T08:26:28;7.30;92.30
40085;DHT22;25786;51.504;7.344;2023-02-02T08:28:55;7.40;92.20
40085;DHT22;25786;51.504;7.344;2023-02-02T08:31:28;7.40;92.10
40085;DHT22;25786;51.504;7.344;2023-02-02T08:33:54;7.30;92.10
40085;DHT22;25786;51.504;7.344;2023-02-02T08:36:22;7.30;92.40
40085;DHT22;25786;51.504;7.344;2023-02-02T08:38:48;7.30;92.50
40085;DHT22;25786;51.504;7.344;2023-02-02T08:41:14;7.30;92.50
40085;DHT22;25786;51.504;7.344;2023-02-02T08:43:40;7.40;92.30
40085;DHT22;25786;51.504;7.344;2023-02-02T08:46:06;7.40;92.40
40085;DHT22;25786;51.504;7.344;2023-02-02T08:48:33;7.40;92.40
40085;DHT22;25786;51.504;7.344;2023-02-02T08:50:58;7.30;92.40
40085;DHT22;25786;51.504;7.344;2023-02-02T08:53:24;7.30;92.40
40085;DHT22;25786;51.504;7.344;2023-02-02T08:56:03;7.40;92.30
40085;DHT22;25786;51.504;7.344;2023-02-02T08:58:29;7.30;92.40
40085;DHT22;25786;51.504;7.344;2023-02-02T09:01:02;7.30;92.60
40085;DHT22;25786;51.504;7.344;2023-02-02T09:03:28;7.40;92.60
40085;DHT22;25786;51.504;7.344;2023-02-02T09:05:53;7.40;92.50
40085;DHT22;25786;51.504;7.344;2023-02-02T09:08:18;7.50;92.50
40085;DHT22;25786;51.504;7.344;2023-02-02T09:10:44;7.50;92.50
40085;DHT22;25786;51.504;7.344;2023-02-02T09:13:09;7.50;92.20
40085;DHT22;25786;51.504;7.344;2023-02-02T09:15:35;7.50;92.30
40085;DHT22;25786;51.504;7.344;2023-02-02T09:18:00;7.40;92.30
40085;DHT22;25786;51.504;7.344;2023-02-02T09:20:26;7.50;92.30
40085;DHT22;25786;51.504;7.344;2023-02-02T09:22:53;7.40;92.30
40085;DHT22;25786;51.504;7.344;2023-02-02T09:25:19;7.50;92.50
40085;DHT22;25786;51.504;7.344;2023-02-02T09:27:44;7.50;92.40
40085;DHT22;25786;51.504;7.344;2023-02-02T09:30:10;7.60;92.30
40085;DHT22;25786;51.504;7.344;2023-02-02T09:32:36;7.50;92.30
40085;DHT22;25786;51.504;7.344;2023-02-02T09:35:01;7.50;92.30
40085;DHT22;25786;51.504;7.344;2023-02-02T09:37:26;7.60;92.10
40085;DHT22;25786;51.504;7.344;2023-02-02T09:39:52;7.50;92.10
40085;DHT22;25786;51.504;7.344;2023-02-02T09:42:24;7.50;92.30
40085;DHT22;25786;51.504;7.344;2023-02-02T09:52:57;7.50;92.50
40085;DHT22;25786;51.504;7.344;2023-02-02T09:55:34;7.50;92.50
40085;DHT22;25786;51.504;7.344;2023-02-02T10:00:40;7.50;92.50
40085;DHT22;25786;51.504;7.344;2023-02-02T10:03:11;7.60;92.50
40085;DHT22;25786;51.504;7.344;2023-02-02T10:05:50;7.50;92.40
40085;DHT22;25786;51.504;7.344;2023-02-02T10:08:23;7.60;92.60
40085;DHT22;25786;51.504;7.344;2023-02-02T10:10:50;7.60;92.50
40085;DHT22;25786;51.504;7.344;2023-02-02T10:13:18;7.60;92.40
40085;DHT22;25786;51.504;7.344;2023-02-02T10:15:49;7.60;92.40
40085;DHT22;25786;51.504;7.344;2023-02-02T10:18:27;7.70;92.40
40085;DHT22;25786;51.504;7.344;2023-02-02T10:20:58;7.60;92.20
40085;DHT22;25786;51.504;7.344;2023-02-02T10:23:58;7.60;92.40
40085;DHT22;25786;51.504;7.344;2023-02-02T10:26:19;7.60;92.40
40085;DHT22;25786;51.504;7.344;2023-02-02T10:28:52;7.70;92.30
40085;DHT22;25786;51.504;7.344;2023-02-02T10:34:48;7.60;92.20
40085;DHT22;25786;51.504;7.344;2023-02-02T10:41:45;7.60;92.40
40085;DHT22;25786;51.504;7.344;2023-02-02T10:46:39;7.60;92.60
40085;DHT22;25786;51.504;7.344;2023-02-02T10:51:31;7.60;92.50
40085;DHT22;25786;51.504;7.344;2023-02-02T10:53:57;7.60;92.50
40085;DHT22;25786;51.504;7.344;2023-02-02T10:56:31;7.60;92.70
40085;DHT22;25786;51.504;7.344;2023-02-02T10:59:05;7.60;92.70
40085;DHT22;25786;51.504;7.344;2023-02-02T11:01:31;7.60;92.70
40085;DHT22;25786;51.504;7.344;2023-02-02T11:03:56;7.60;92.70
40085;DHT22;25786;51.504;7.344;2023-02-02T11:06:41;7.60;92.80
40085;DHT22;25786;51.504;7.344;2023-02-02T11:09:34;7.60;92.60
40085;DHT22;25786;51.504;7.344;2023-02-02T11:12:03;7.60;92.70
40085;DHT22;25786;51.504;7.344;2023-02-02T11:14:33;7.60;92.70
40085;DHT22;25786;51.504;7.344;2023-02-02T11:17:04;7.60;92.60
40085;DHT22;25786;51.504;7.344;2023-02-02T11:19:31;7.60;92.60
40085;DHT22;25786;51.504;7.344;2023-02-02T11:22:00;7.60;92.70
40085;DHT22;25786;51.504;7.344;2023-02-02T11:24:39;7.70;92.40
40085;DHT22;25786;51.504;7.344;2023-02-02T11:27:16;7.70;92.50
40085;DHT22;25786;51.504;7.344;2023-02-02T11:29:44;7.70;92.70
40085;DHT22;25786;51.504;7.344;2023-02-02T11:37:32;7.70;92.50
40085;DHT22;25786;51.504;7.344;2023-02-02T11:42:45;7.80;92.50
40085;DHT22;25786;51.504;7.344;2023-02-02T11:45:15;7.80;92.50
40085;DHT22;25786;51.504;7.344;2023-02-02T11:47:42;7.70;92.30
40085;DHT22;25786;51.504;7.344;2023-02-02T11:50:14;7.70;92.10
40085;DHT22;25786;51.504;7.344;2023-02-02T11:52:43;7.80;92.40
40085;DHT22;25786;51.504;7.344;2023-02-02T11:55:13;7.80;92.10
40085;DHT22;25786;51.504;7.344;2023-02-02T11:57:39;7.80;92.20
40085;DHT22;25786;51.504;7.344;2023-02-02T12:02:36;7.70;92.10
40085;DHT22;25786;51.504;7.344;2023-02-02T12:07:34;7.80;92.30
40085;DHT22;25786;51.504;7.344;2023-02-02T12:12:54;7.70;92.20
40085;DHT22;25786;51.504;7.344;2023-02-02T12:15:37;7.80;92.00
40085;DHT22;25786;51.504;7.344;2023-02-02T12:20:57;7.80;91.80
40085;DHT22;25786;51.504;7.344;2023-02-02T12:26:00;7.80;91.90
40085;DHT22;25786;51.504;7.344;2023-02-02T12:28:32;7.80;91.90
40085;DHT22;25786;51.504;7.344;2023-02-02T12:33:34;7.80;91.80
40085;DHT22;25786;51.504;7.344;2023-02-02T12:41:01;7.90;91.70
40085;DHT22;25786;51.504;7.344;2023-02-02T12:43:46;7.90;91.70
40085;DHT22;25786;51.504;7.344;2023-02-02T12:49:15;7.80;91.50
40085;DHT22;25786;51.504;7.344;2023-02-02T12:51:40;7.80;91.40
40085;DHT22;25786;51.504;7.344;2023-02-02T12:54:27;7.90;91.70
40085;DHT22;25786;51.504;7.344;2023-02-02T12:59:50;7.80;91.80
40085;DHT22;25786;51.504;7.344;2023-02-02T13:02:30;7.80;91.50
40085;DHT22;25786;51.504;7.344;2023-02-02T13:07:31;7.80;91.50
40085;DHT22;25786;51.504;7.344;2023-02-02T13:10:10;7.80;91.60
40085;DHT22;25786;51.504;7.344;2023-02-02T13:12:40;7.80;91.90
40085;DHT22;25786;51.504;7.344;2023-02-02T13:15:08;7.80;91.40
40085;DHT22;25786;51.504;7.344;2023-02-02T13:17:40;7.90;91.30
40085;DHT22;25786;51.504;7.344;2023-02-02T13:20:15;7.90;91.30
40085;DHT22;25786;51.504;7.344;2023-02-02T13:22:46;7.80;91.50
40085;DHT22;25786;51.504;7.344;2023-02-02T13:25:20;7.80;91.60
40085;DHT22;25786;51.504;7.344;2023-02-02T13:27:49;7.80;91.70
40085;DHT22;25786;51.504;7.344;2023-02-02T13:32:51;7.90;91.60
40085;DHT22;25786;51.504;7.344;2023-02-02T13:35:22;8.00;91.50
40085;DHT22;25786;51.504;7.344;2023-02-02T13:37:53;7.90;91.30
40085;DHT22;25786;51.504;7.344;2023-02-02T13:42:51;7.90;91.90
40085;DHT22;25786;51.504;7.344;2023-02-02T13:45:33;8.00;91.80
40085;DHT22;25786;51.504;7.344;2023-02-02T13:48:10;7.90;92.10
40085;DHT22;25786;51.504;7.344;2023-02-02T13:50:44;8.00;91.80
40085;DHT22;25786;51.504;7.344;2023-02-02T13:53:20;7.90;91.70
40085;DHT22;25786;51.504;7.344;2023-02-02T13:58:25;7.90;91.70
40085;DHT22;25786;51.504;7.344;2023-02-02T14:01:01;7.90;91.90
40085;DHT22;25786;51.504;7.344;2023-02-02T14:03:36;7.90;91.90
40085;DHT22;25786;51.504;7.344;2023-02-02T14:06:06;7.90;92.00
40085;DHT22;25786;51.504;7.344;2023-02-02T14:08:32;7.90;91.90
40085;DHT22;25786;51.504;7.344;2023-02-02T14:10:59;7.90;91.40
40085;DHT22;25786;51.504;7.344;2023-02-02T14:16:20;7.80;92.10
40085;DHT22;25786;51.504;7.344;2023-02-02T14:23:56;7.90;92.10
40085;DHT22;25786;51.504;7.344;2023-02-02T14:31:56;7.90;92.40
40085;DHT22;25786;51.504;7.344;2023-02-02T14:37:06;7.90;92.30
40085;DHT22;25786;51.504;7.344;2023-02-02T14:39:39;7.90;92.20
40085;DHT22;25786;51.504;7.344;2023-02-02T14:42:19;7.90;92.40
40085;DHT22;25786;51.504;7.344;2023-02-02T14:47:41;7.90;92.40
40085;DHT22;25786;51.504;7.344;2023-02-02T14:50:26;7.90;92.20
40085;DHT22;25786;51.504;7.344;2023-02-02T14:52:55;7.90;92.30
40085;DHT22;25786;51.504;7.344;2023-02-02T14:55:21;8.00;92.20
40085;DHT22;25786;51.504;7.344;2023-02-02T14:58:00;7.90;92.10
40085;DHT22;25786;51.504;7.344;2023-02-02T15:00:27;7.90;92.40
40085;DHT22;25786;51.504;7.344;2023-02-02T15:02:54;7.90;92.40
40085;DHT22;25786;51.504;7.344;2023-02-02T15:13:12;7.90;92.60
40085;DHT22;25786;51.504;7.344;2023-02-02T15:15:40;7.90;92.50
40085;DHT22;25786;51.504;7.344;2023-02-02T15:18:12;7.80;92.80
40085;DHT22;25786;51.504;7.344;2023-02-02T15:20:40;7.80;92.70
40085;DHT22;25786;51.504;7.344;2023-02-02T15:25:44;7.80;92.80
40085;DHT22;25786;51.504;7.344;2023-02-02T15:28:23;7.70;93.00
40085;DHT22;25786;51.504;7.344;2023-02-02T15:31:06;7.80;92.90
40085;DHT22;25786;51.504;7.344;2023-02-02T15:33:35;7.80;93.10
40085;DHT22;25786;51.504;7.344;2023-02-02T15:36:02;7.80;93.10
40085;DHT22;25786;51.504;7.344;2023-02-02T15:38:33;7.80;92.90
40085;DHT22;25786;51.504;7.344;2023-02-02T15:41:02;7.80;92.90
40085;DHT22;25786;51.504;7.344;2023-02-02T15:43:28;7.80;92.90
40085;DHT22;25786;51.504;7.344;2023-02-02T15:45:54;7.80;92.80
40085;DHT22;25786;51.504;7.344;2023-02-02T15:48:25;7.90;92.80
40085;DHT22;25786;51.504;7.344;2023-02-02T15:50:55;7.80;92.80
40085;DHT22;25786;51.504;7.344;2023-02-02T15:58:50;7.80;92.80
40085;DHT22;25786;51.504;7.344;2023-02-02T16:01:16;7.80;92.80
40085;DHT22;25786;51.504;7.344;2023-02-02T16:06:20;7.80;93.00
40085;DHT22;25786;51.504;7.344;2023-02-02T16:08:46;7.80;93.00
40085;DHT22;25786;51.504;7.344;2023-02-02T16:11:15;7.80;93.10
40085;DHT22;25786;51.504;7.344;2023-02-02T16:13:43;7.80;93.00
40085;DHT22;25786;51.504;7.344;2023-02-02T16:16:23;7.80;93.00
40085;DHT22;25786;51.504;7.344;2023-02-02T16:21:27;7.80;93.20
40085;DHT22;25786;51.504;7.344;2023-02-02T16:23:52;7.70;93.10
40085;DHT22;25786;51.504;7.344;2023-02-02T16:26:19;7.70;93.10
40085;DHT22;25786;51.504;7.344;2023-02-02T16:28:46;7.80;93.10
40085;DHT22;25786;51.504;7.344;2023-02-02T16:31:12;7.70;93.10
40085;DHT22;25786;51.504;7.344;2023-02-02T16:33:44;7.80;93.10
40085;DHT22;25786;51.504;7.344;2023-02-02T16:36:23;7.70;93.20
40085;DHT22;25786;51.504;7.344;2023-02-02T16:39:49;7.70;93.20
40085;DHT22;25786;51.504;7.344;2023-02-02T16:41:43;7.70;93.30
40085;DHT22;25786;51.504;7.344;2023-02-02T16:46:57;7.80;93.30
40085;DHT22;25786;51.504;7.344;2023-02-02T16:49:24;7.80;93.20
40085;DHT22;25786;51.504;7.344;2023-02-02T16:52:22;7.70;93.20
40085;DHT22;25786;51.504;7.344;2023-02-02T16:54:54;7.80;93.40
40085;DHT22;25786;51.504;7.344;2023-02-02T16:57:22;7.80;93.30
40085;DHT22;25786;51.504;7.344;2023-02-02T16:59:56;7.80;93.40
40085;DHT22;25786;51.504;7.344;2023-02-02T17:02:40;7.70;93.20
40085;DHT22;25786;51.504;7.344;2023-02-02T17:05:20;7.70;93.50
40085;DHT22;25786;51.504;7.344;2023-02-02T17:07:59;7.70;93.50
40085;DHT22;25786;51.504;7.344;2023-02-02T17:16:45;7.70;93.50
40085;DHT22;25786;51.504;7.344;2023-02-02T17:22:42;7.80;93.70
40085;DHT22;25786;51.504;7.344;2023-02-02T17:25:18;7.80;93.60
40085;DHT22;25786;51.504;7.344;2023-02-02T17:27:48;7.80;93.60
40085;DHT22;25786;51.504;7.344;2023-02-02T17:30:14;7.80;93.60
40085;DHT22;25786;51.504;7.344;2023-02-02T17:35:50;7.80;93.20
40085;DHT22;25786;51.504;7.344;2023-02-02T17:38:33;7.80;93.40
40085;DHT22;25786;51.504;7.344;2023-02-02T17:41:01;7.90;93.40
40085;DHT22;25786;51.504;7.344;2023-02-02T17:43:54;7.90;93.40
40085;DHT22;25786;51.504;7.344;2023-02-02T17:46:28;7.90;93.40
40085;DHT22;25786;51.504;7.344;2023-02-02T17:52:25;7.90;93.30
40085;DHT22;25786;51.504;7.344;2023-02-02T17:55:04;7.80;93.40
40085;DHT22;25786;51.504;7.344;2023-02-02T17:57:40;7.80;93.50
40085;DHT22;25786;51.504;7.344;2023-02-02T18:00:16;7.80;93.50
40085;DHT22;25786;51.504;7.344;2023-02-02T18:08:49;7.80;93.60
40085;DHT22;25786;51.504;7.344;2023-02-02T18:11:14;7.80;93.60
40085;DHT22;25786;51.504;7.344;2023-02-02T18:14:07;7.80;93.60
40085;DHT22;25786;51.504;7.344;2023-02-02T18:17:02;7.80;93.60
40085;DHT22;25786;51.504;7.344;2023-02-02T18:22:44;7.80;93.60
40085;DHT22;25786;51.504;7.344;2023-02-02T18:28:29;7.80;93.80
40085;DHT22;25786;51.504;7.344;2023-02-02T18:30:55;7.80;93.70
40085;DHT22;25786;51.504;7.344;2023-02-02T18:33:20;7.80;93.80
40085;DHT22;25786;51.504;7.344;2023-02-02T18:35:47;7.80;93.80
40085;DHT22;25786;51.504;7.344;2023-02-02T18:38:13;7.80;93.80
40085;DHT22;25786;51.504;7.344;2023-02-02T18:40:39;7.80;93.70
40085;DHT22;25786;51.504;7.344;2023-02-02T18:43:04;7.80;93.70
40085;DHT22;25786;51.504;7.344;2023-02-02T18:45:30;7.80;93.70
40085;DHT22;25786;51.504;7.344;2023-02-02T18:47:55;7.80;93.70
40085;DHT22;25786;51.504;7.344;2023-02-02T18:50:21;7.90;93.60
40085;DHT22;25786;51.504;7.344;2023-02-02T18:52:48;7.80;93.60
40085;DHT22;25786;51.504;7.344;2023-02-02T18:55:13;7.80;93.60
40085;DHT22;25786;51.504;7.344;2023-02-02T18:57:39;7.80;93.70
40085;DHT22;25786;51.504;7.344;2023-02-02T19:00:04;7.80;93.70
40085;DHT22;25786;51.504;7.344;2023-02-02T19:02:30;7.80;93.60
40085;DHT22;25786;51.504;7.344;2023-02-02T19:04:56;7.90;93.50
40085;DHT22;25786;51.504;7.344;2023-02-02T19:07:40;7.90;93.50
40085;DHT22;25786;51.504;7.344;2023-02-02T19:10:23;7.80;93.60
40085;DHT22;25786;51.504;7.344;2023-02-02T19:15:36;7.90;93.80
40085;DHT22;25786;51.504;7.344;2023-02-02T19:18:01;7.90;93.60
40085;DHT22;25786;51.504;7.344;2023-02-02T19:20:28;8.00;93.50
40085;DHT22;25786;51.504;7.344;2023-02-02T19:22:59;7.90;93.50
40085;DHT22;25786;51.504;7.344;2023-02-02T19:25:25;8.00;93.60
40085;DHT22;25786;51.504;7.344;2023-02-02T19:27:51;7.90;93.50
40085;DHT22;25786;51.504;7.344;2023-02-02T19:30:17;8.00;93.70
40085;DHT22;25786;51.504;7.344;2023-02-02T19:32:43;7.90;93.50
40085;DHT22;25786;51.504;7.344;2023-02-02T19:35:19;8.00;93.60
40085;DHT22;25786;51.504;7.344;2023-02-02T19:37:45;7.90;93.60
40085;DHT22;25786;51.504;7.344;2023-02-02T19:40:14;7.90;93.60
40085;DHT22;25786;51.504;7.344;2023-02-02T19:42:44;8.00;93.70
40085;DHT22;25786;51.504;7.344;2023-02-02T19:45:20;8.00;93.50
40085;DHT22;25786;51.504;7.344;2023-02-02T19:47:46;8.00;93.50
40085;DHT22;25786;51.504;7.344;2023-02-02T19:50:13;8.00;93.60
40085;DHT22;25786;51.504;7.344;2023-02-02T19:52:40;8.00;93.30
40085;DHT22;25786;51.504;7.344;2023-02-02T19:55:39;8.00;93.20
40085;DHT22;25786;51.504;7.344;2023-02-02T19:58:05;8.00;93.20
40085;DHT22;25786;51.504;7.344;2023-02-02T20:00:35;8.00;93.20
40085;DHT22;25786;51.504;7.344;2023-02-02T20:07:57;8.00;93.20
40085;DHT22;25786;51.504;7.344;2023-02-02T20:10:24;8.00;93.10
40085;DHT22;25786;51.504;7.344;2023-02-02T20:12:50;8.10;93.10
40085;DHT22;25786;51.504;7.344;2023-02-02T20:15:26;8.10;93.20